Latest Weather Observations for Gingin Airport

IDW60801

Issued at 9:02 pm WST Sunday 1 February 2015 (issued every 30 minutes, with the page automatically refreshed every 10 minutes)

About weather observations | Map of weather stations | Latest weather observations for WA | Other Formats
Station Details ID: 009178 Name: GINGIN AERO Lat: -31.46 Lon: 115.86 Height: 73.0 m
Data from the previous 72 hours. | See also: Recent months at Gingin Airport
Date/Time
WST
Temp
°C
App
Temp
°C
Dew
Point
Rel
Hum
%
Delta-T
°C
Wind Press
QNH
hPa
Press
MSL
hPa
Rain
since 9 am
mm
Dir
 
Spd
km/h
Gust
km/h
Spd
kts
Gust
kts
01/09:00pm 20.2 21.2 20.2 100 0.0 WNW 15 19 8 10 1015.6 1015.3 4.2
01/08:30pm 20.3 20.6 20.3 100 0.0 WNW 19 24 10 13 1014.9 1014.6 2.0
01/08:00pm 20.3 18.7 20.0 98 0.2 WNW 28 43 15 23 1013.8 1013.5 0.4
01/07:30pm 20.9 17.9 18.7 87 1.4 NW 32 50 17 27 1013.5 1013.2 0.0
01/07:08pm 25.5 21.0 15.5 54 6.1 NNW 33 54 18 29 1012.9 1012.5 0.0
01/07:04pm 26.7 23.4 14.1 46 7.5 NNE 24 48 13 26 1012.6 1012.2 0.0
01/07:00pm 32.0 28.7 9.5 25 12.8 ENE 17 44 9 24 1011.6 1011.2 0.0
01/06:57pm 32.2 29.2 9.1 24 13.0 E 15 20 8 11 1010.6 1010.2 0.0
01/06:30pm 32.5 26.1 8.7 23 13.4 ESE 32 39 17 21 1008.6 1008.2 0.0
01/06:00pm 32.7 26.5 9.5 24 13.2 ESE 32 41 17 22 1008.3 1007.9 0.0
01/05:30pm 33.7 26.8 9.0 22 14.0 ESE 35 48 19 26 1008.3 1007.9 0.0
01/05:00pm 34.2 27.4 9.4 22 14.2 ESE 35 46 19 25 1008.5 1008.1 0.0
01/04:30pm 34.5 28.2 9.0 21 14.5 ESE 32 44 17 24 1009.2 1008.8 0.0
01/04:00pm 33.4 26.9 8.8 22 13.9 ESE 33 44 18 24 1009.7 1009.3 0.0
01/03:30pm 33.5 27.2 8.9 22 13.9 ESE 32 46 17 25 1010.4 1010.0 0.0
01/03:00pm 32.8 26.3 8.9 23 13.5 ESE 33 46 18 25 1010.8 1010.4 0.0
01/02:30pm 32.3 26.1 9.2 24 13.1 ESE 32 46 17 25 1011.5 1011.1 0.0
01/02:00pm 32.4 26.5 9.2 24 13.1 E 30 44 16 24 1011.8 1011.4 0.0
01/01:30pm 32.2 26.3 9.1 24 13.0 E 30 43 16 23 1012.1 1011.7 0.0
01/01:02pm 30.5 25.1 9.4 27 11.9 ESE 28 46 15 25 1012.3 1011.9 0.0
01/01:00pm 30.3 24.4 9.2 27 11.8 ESE 30 46 16 25 1012.4 1012.0 0.0
01/12:59pm 30.6 25.2 9.5 27 11.9 ESE 28 46 15 25 1012.4 1012.0 0.0
01/12:30pm 28.6 22.3 9.8 31 10.6 E 33 43 18 23 1012.8 1012.4 0.0
01/12:00pm 27.6 22.4 10.3 34 9.7 ESE 28 41 15 22 1013.3 1012.9 0.0
01/11:30am 26.5 20.9 10.2 36 9.1 E 30 41 16 22 1013.4 1013.0 0.0
01/11:00am 26.2 20.3 10.4 37 8.9 E 32 39 17 21 1013.7 1013.4 0.0
01/10:30am 25.5 22.0 10.9 40 8.2 E 20 32 11 17 1013.9 1013.6 0.0
01/10:00am 24.1 20.9 11.1 44 7.3 ESE 19 28 10 15 1014.1 1013.8 0.0
01/09:30am 23.8 19.1 10.8 44 7.2 E 26 39 14 21 1014.5 1014.2 0.0
01/09:00am 23.5 18.5 10.9 45 7.0 E 28 35 15 19 1014.2 1013.9 0.0
01/08:30am 23.1 17.3 10.9 46 6.8 E 32 41 17 22 1013.9 1013.6 0.0
01/08:00am 23.5 17.2 10.9 45 7.0 E 35 48 19 26 1013.5 1013.2 0.0
01/07:30am 22.5 16.3 11.3 49 6.3 E 35 46 19 25 1013.2 1012.9 0.0
01/07:00am 21.7 15.5 11.4 52 5.7 E 35 44 19 24 1012.6 1012.3 0.0
01/06:30am 20.8 14.6 11.4 55 5.2 E 35 44 19 24 1012.4 1012.1 0.0
01/06:00am 20.6 15.3 11.2 55 5.2 ESE 30 44 16 24 1012.4 1012.1 0.0
01/05:30am 20.7 15.8 11.3 55 5.2 ESE 28 43 15 23 1012.5 1012.2 0.0
01/05:00am 21.0 16.1 11.3 54 5.4 ESE 28 35 15 19 1012.4 1012.1 0.0
01/04:30am 21.2 16.6 11.2 53 5.5 ESE 26 33 14 18 1012.6 1012.3 0.0
01/04:00am 21.7 17.1 11.1 51 5.9 ESE 26 37 14 20 1012.7 1012.4 0.0
01/03:30am 22.3 17.3 11.1 49 6.2 E 28 35 15 19 1012.6 1012.3 0.0
01/03:00am 22.6 17.9 10.7 47 6.6 ESE 26 37 14 20 1012.4 1012.1 0.0
01/02:30am 23.2 18.3 9.9 43 7.3 ESE 26 39 14 21 1012.0 1011.7 0.0
01/02:00am 24.1 18.6 9.3 39 8.1 E 28 43 15 23 1011.8 1011.4 0.0
01/01:30am 24.8 20.5 7.9 34 9.0 ESE 20 32 11 17 1012.0 1011.7 0.0
01/01:00am 25.0 21.9 7.2 32 9.4 ESE 13 17 7 9 1012.1 1011.8 0.0
01/12:30am 25.6 20.3 6.7 30 9.9 E 24 32 13 17 1011.8 1011.4 0.0
01/12:00am 26.1 20.8 6.7 29 10.2 ESE 24 35 13 19 1011.9 1011.5 0.0
 
Date/Time
WST
Temp
°C
App
Temp
°C
Dew
Point
Rel
Hum
%
Delta-T
°C
Wind Press
QNH
hPa
Press
MSL
hPa
Rain
since 9 am
mm
Dir
 
Spd
km/h
Gust
km/h
Spd
kts
Gust
kts
31/11:30pm 26.5 21.2 7.0 29 10.3 ESE 24 33 13 18 1012.2 1011.9 0.0
31/11:00pm 26.8 21.5 6.8 28 10.6 E 24 32 13 17 1012.3 1012.0 0.0
31/10:30pm 27.4 21.3 6.8 27 10.9 ESE 28 39 15 21 1012.5 1012.2 0.0
31/10:00pm 27.5 22.5 6.3 26 11.1 ESE 22 32 12 17 1012.8 1012.5 0.0
31/09:30pm 27.8 23.3 6.0 25 11.4 ESE 19 28 10 15 1012.7 1012.4 0.0
31/09:00pm 27.9 23.8 6.1 25 11.5 ESE 17 24 9 13 1012.7 1012.4 0.0
31/08:30pm 28.2 23.6 6.3 25 11.6 ESE 20 30 11 16 1012.3 1012.0 0.0
31/08:00pm 28.6 22.8 6.1 24 11.9 ESE 26 35 14 19 1012.3 1012.0 0.0
31/07:30pm 28.8 24.1 5.0 22 12.3 ESE 19 26 10 14 1012.3 1012.0 0.0
31/07:00pm 29.2 24.3 3.9 20 12.9 ESE 19 24 10 13 1011.9 1011.5 0.0
31/06:30pm 29.7 24.7 4.4 20 13.0 ESE 20 28 11 15 1012.1 1011.8 0.0
31/06:00pm 29.8 24.5 5.1 21 12.9 ESE 22 28 12 15 1012.0 1011.7 0.0
31/05:30pm 30.0 23.4 6.0 22 12.7 E 30 41 16 22 1011.9 1011.5 0.0
31/05:00pm 30.4 24.8 7.0 23 12.7 ENE 26 37 14 20 1012.2 1011.9 0.0
31/04:30pm 30.5 25.0 7.7 24 12.5 E 26 35 14 19 1012.4 1012.1 0.0
31/04:00pm 30.5 25.9 8.3 25 12.3 ESE 22 30 12 16 1012.6 1012.3 0.0
31/03:30pm 30.3 25.7 8.1 25 12.2 E 22 32 12 17 1012.9 1012.6 0.0
31/03:00pm 30.1 26.0 8.5 26 12.0 E 20 30 11 16 1013.0 1012.7 0.0
31/02:30pm 29.4 25.0 9.0 28 11.3 ENE 22 32 12 17 1013.3 1013.0 0.0
31/02:00pm 29.6 25.3 9.2 28 11.4 ENE 22 32 12 17 1013.3 1013.0 0.0
31/01:30pm 29.6 26.0 9.7 29 11.2 E 19 32 10 17 1013.3 1013.0 0.0
31/01:00pm 28.7 23.8 9.9 31 10.6 E 26 33 14 18 1013.3 1013.0 0.0
31/12:30pm 27.7 22.7 10.9 35 9.6 E 28 35 15 19 1013.5 1013.2 0.0
31/12:00pm 27.2 22.2 10.8 36 9.3 ESE 28 39 15 21 1013.4 1013.1 0.0
31/11:30am 27.1 23.3 11.2 37 9.1 E 22 32 12 17 1013.5 1013.2 0.0
31/11:00am 26.7 21.9 11.6 39 8.7 E 28 43 15 23 1013.4 1013.1 0.0
31/10:30am 26.8 21.3 11.7 39 8.7 E 32 46 17 25 1013.3 1013.0 0.0
31/10:00am 25.4 18.6 11.9 43 7.7 E 39 52 21 28 1013.3 1013.0 0.0
31/09:30am 24.7 17.6 12.3 46 7.1 E 41 54 22 29 1013.5 1013.2 0.0
31/09:00am 23.5 17.9 12.2 49 6.4 ENE 33 46 18 25 1013.9 1013.6 0.0
31/08:30am 22.5 18.6 12.2 52 5.8 E 24 35 13 19 1014.0 1013.7 0.0
31/08:00am 21.6 17.0 12.2 55 5.3 E 28 35 15 19 1013.7 1013.4 0.0
31/07:30am 21.0 16.0 12.2 57 5.0 E 30 39 16 21 1013.9 1013.6 0.0
31/07:00am 20.7 16.0 12.1 58 4.8 E 28 41 15 22 1013.6 1013.3 0.0
31/06:30am 20.5 14.9 12.0 58 4.8 E 33 46 18 25 1013.5 1013.2 0.0
31/06:00am 20.5 14.5 12.0 58 4.8 E 35 44 19 24 1013.1 1012.8 0.0
31/05:30am 20.7 15.5 11.6 56 5.1 E 30 37 16 20 1013.1 1012.8 0.0
31/05:00am 20.7 17.6 11.6 56 5.1 ESE 19 26 10 14 1013.2 1012.9 0.0
31/04:30am 20.9 15.7 11.5 55 5.2 E 30 39 16 21 1012.7 1012.4 0.0
31/04:00am 21.2 13.8 11.2 53 5.5 E 41 54 22 29 1012.5 1012.2 0.0
31/03:30am 21.9 14.5 11.3 51 5.9 E 41 56 22 30 1012.5 1012.2 0.0
31/03:00am 22.7 15.9 10.8 47 6.6 E 37 48 20 26 1012.7 1012.4 0.0
31/02:30am 23.1 17.0 10.5 45 7.0 E 33 39 18 21 1012.9 1012.6 0.0
31/02:00am 23.9 17.7 9.9 41 7.7 ESE 33 46 18 25 1012.7 1012.4 0.0
31/01:30am 24.7 18.2 9.0 37 8.5 ESE 33 54 18 29 1012.6 1012.3 0.0
31/01:24am 25.0 18.7 8.9 36 8.7 ESE 32 54 17 29 1012.6 1012.3 0.0
31/01:00am 25.8 20.1 8.3 33 9.4 ESE 28 39 15 21 1012.5 1012.2 0.0
31/12:30am 27.0 20.9 6.4 27 10.8 ESE 28 43 15 23 1012.3 1012.0 0.0
31/12:09am 27.9 21.7 6.1 25 11.4 ESE 28 46 15 25 1012.3 1012.0 0.0
31/12:00am 28.3 22.0 5.8 24 11.8 SE 28 44 15 24 1012.3 1012.0 0.0
 
Date/Time
WST
Temp
°C
App
Temp
°C
Dew
Point
Rel
Hum
%
Delta-T
°C
Wind Press
QNH
hPa
Press
MSL
hPa
Rain
since 9 am
mm
Dir
 
Spd
km/h
Gust
km/h
Spd
kts
Gust
kts
30/11:30pm 29.5 22.5 4.2 20 13.0 ESE 30 43 16 23 1011.9 1011.5 0.0
30/11:00pm 30.4 21.4 2.6 17 14.0 ESE 39 59 21 32 1011.4 1011.0 0.0
30/10:46pm 30.9 24.1 3.0 17 14.1 ESE 28 46 15 25 1011.3 1010.9 0.0
30/10:30pm 31.2 24.2 4.1 18 14.0 ESE 30 43 16 23 1011.3 1010.9 0.0
30/10:00pm 30.1 26.1 6.7 23 12.6 SE 17 28 9 15 1011.1 1010.7 0.0
30/09:30pm 29.1 26.5 7.6 26 11.7 SSE 11 17 6 9 1010.8 1010.4 0.0
30/09:00pm 29.6 26.6 7.5 25 12.0 S 13 17 7 9 1010.4 1010.0 0.0
30/08:30pm 29.9 27.2 7.2 24 12.3 SSE 11 13 6 7 1010.1 1009.7 0.0
30/08:00pm 30.6 27.3 6.5 22 13.0 SSE 13 17 7 9 1010.0 1009.6 0.0
30/07:30pm 31.8 27.5 5.3 19 14.0 ESE 17 22 9 12 1009.8 1009.4 0.0
30/07:00pm 31.7 27.6 6.0 20 13.8 E 17 24 9 13 1009.6 1009.2 0.0
30/06:30pm 32.0 27.3 6.2 20 13.9 E 20 26 11 14 1009.4 1009.0 0.0
30/06:00pm 32.3 26.0 7.2 21 13.8 E 30 43 16 23 1009.8 1009.4 0.0
30/05:30pm 33.3 24.9 7.3 20 14.3 E 41 52 22 28 1010.1 1009.7 0.0
30/05:00pm 34.5 26.9 5.9 17 15.5 E 35 52 19 28 1009.8 1009.4 0.0
30/04:58pm 34.4 27.4 5.8 17 15.5 E 32 52 17 28 1009.8 1009.4 0.0
30/04:55pm 34.6 28.2 5.1 16 15.8 E 28 46 15 25 1009.8 1009.4 0.0
30/04:30pm 34.6 28.6 5.1 16 15.8 ENE 26 35 14 19 1009.7 1009.3 0.0
30/04:00pm 34.6 28.9 5.1 16 15.8 E 24 32 13 17 1009.7 1009.3 0.0
30/03:30pm 34.5 28.6 5.9 17 15.5 ESE 26 32 14 17 1009.8 1009.4 0.0
30/03:00pm 34.1 29.5 6.4 18 15.1 ESE 20 26 11 14 1010.0 1009.6 0.0
30/02:30pm 34.3 29.0 6.6 18 15.2 E 24 33 13 18 1010.5 1010.1 0.0
30/02:00pm 35.4 27.8 5.8 16 16.1 E 35 44 19 24 1010.7 1010.3 0.0
30/01:30pm 35.3 30.3 4.8 15 16.3 ENE 20 32 11 17 1010.8 1010.4 0.0
30/01:00pm 36.6 32.4 5.8 15 16.9 ESE 17 28 9 15 1010.6 1010.2 0.0
30/12:30pm 34.6 30.1 6.0 17 15.6 ENE 19 24 10 13 1011.0 1010.6 0.0
30/12:00pm 33.5 28.8 5.9 18 14.9 ENE 20 26 11 14 1011.2 1010.8 0.0
30/11:30am 32.5 27.9 6.7 20 14.0 NE 20 32 11 17 1011.1 1010.7 0.0
30/11:00am 31.3 27.2 6.4 21 13.4 ENE 17 22 9 12 1011.3 1010.9 0.0
30/10:30am 31.7 24.1 6.0 20 13.8 E 35 44 19 24 1011.3 1010.9 0.0
30/10:00am 32.5 27.6 6.7 20 14.1 ENE 22 32 12 17 1011.0 1010.6 0.0
30/09:30am 30.8 26.6 7.3 23 12.8 E 19 24 10 13 1011.3 1010.9 0.0
30/09:00am 29.1 25.4 6.5 24 12.0 E 15 20 8 11 1011.5 1011.1 0.0
30/08:30am 28.3 24.8 7.0 26 11.4 ESE 15 20 8 11 1011.1 1010.7 0.0
30/08:00am 26.3 23.2 7.4 30 10.1 ESE 13 17 7 9 1011.1 1010.7 0.0
30/07:30am 25.1 22.3 6.8 31 9.6 ESE 11 17 6 9 1011.0 1010.6 0.0
30/07:00am 24.2 21.0 8.6 37 8.4 SE 15 19 8 10 1010.6 1010.2 0.0
30/06:30am 23.7 20.9 10.0 42 7.5 SE 15 19 8 10 1010.2 1009.8 0.0
30/06:00am 22.6 20.9 12.3 52 5.9 SSE 13 15 7 8 1010.0 1009.6 0.0
30/05:30am 21.6 20.4 14.0 62 4.4 SSE 13 13 7 7 1009.8 1009.4 0.0
30/05:00am 20.9 21.5 15.9 73 3.0 E 7 9 4 5 1009.6 1009.2 0.0
30/04:30am 20.4 23.0 17.4 83 1.8 CALM 0 7 0 4 1009.6 1009.2 0.0
30/04:00am 20.6 22.0 17.4 82 2.0 E 6 9 3 5 1009.5 1009.1 0.0
30/03:30am 21.2 22.8 17.8 81 2.1 E 6 7 3 4 1009.4 1009.0 0.0
30/03:00am 20.9 21.9 17.7 82 2.0 E 9 11 5 6 1009.6 1009.2 0.0
30/02:30am 21.1 22.7 18.3 84 1.7 E 7 9 4 5 1009.7 1009.3 0.0
30/02:00am 21.0 23.5 18.2 84 1.7 E 2 6 1 3 1009.4 1009.0 0.0
30/01:30am 21.3 23.1 18.3 83 1.9 E 6 7 3 4 1009.5 1009.1 0.0
30/01:00am 21.4 24.2 18.0 81 2.1 CALM 0 0 0 0 1009.9 1009.5 0.0
30/12:30am 22.2 24.0 18.2 78 2.5 E 6 9 3 5 1010.1 1009.7 0.0
30/12:00am 22.7 25.3 18.3 76 2.8 E 2 6 1 3 1010.2 1009.8 0.0
 
Date/Time
WST
Temp
°C
App
Temp
°C
Dew
Point
Rel
Hum
%
Delta-T
°C
Wind Press
QNH
hPa
Press
MSL
hPa
Rain
since 9 am
mm
Dir
 
Spd
km/h
Gust
km/h
Spd
kts
Gust
kts
29/11:30pm 23.0 24.3 18.5 76 2.8 NNE 9 11 5 6 1010.7 1010.3 0.0
29/11:00pm 23.0 24.8 18.3 75 3.0 NNW 6 9 3 5 1010.6 1010.2 0.0
29/10:30pm 23.7 26.0 18.6 73 3.2 NNW 4 6 2 3 1010.5 1010.1 0.0
29/10:00pm 24.1 24.2 18.3 70 3.7 NW 15 22 8 12 1010.4 1010.0 0.0
29/09:30pm 24.3 22.9 18.0 68 4.0 N 22 33 12 18 1010.0 1009.6 0.0
29/09:25pm 24.3 24.3 17.3 65 4.4 NW 13 32 7 17 1010.0 1009.6 0.0

Other Formats:

Comma delimited format used in spreadsheet applications
http://www.bom.gov.au/fwo/IDW60801/IDW60801.95612.axf

JavaScript Object Notation format (JSON) in row-major order
http://www.bom.gov.au/fwo/IDW60801/IDW60801.95612.json